sensor_id;sensor_type;location;lat;lon;timestamp;pressure;altitude;pressure_sealevel;temperature
61977;BMP280;45905;50.570;10.428;2022-07-03T00:00:13;98190.28;;;17.57
61977;BMP280;45905;50.570;10.428;2022-07-03T00:02:41;98195.16;;;17.52
61977;BMP280;45905;50.570;10.428;2022-07-03T00:05:08;98191.44;;;17.48
61977;BMP280;45905;50.570;10.428;2022-07-03T00:07:39;98195.34;;;17.44
61977;BMP280;45905;50.570;10.428;2022-07-03T00:10:07;98196.91;;;17.39
61977;BMP280;45905;50.570;10.428;2022-07-03T00:12:35;98196.47;;;17.36
61977;BMP280;45905;50.570;10.428;2022-07-03T00:15:02;98199.63;;;17.31
61977;BMP280;45905;50.570;10.428;2022-07-03T00:17:29;98207.06;;;17.26
61977;BMP280;45905;50.570;10.428;2022-07-03T00:19:57;98205.09;;;17.22
61977;BMP280;45905;50.570;10.428;2022-07-03T00:22:32;98199.16;;;17.21
61977;BMP280;45905;50.570;10.428;2022-07-03T00:25:06;98185.94;;;17.18
61977;BMP280;45905;50.570;10.428;2022-07-03T00:27:34;98195.78;;;17.15
61977;BMP280;45905;50.570;10.428;2022-07-03T00:30:06;98197.13;;;17.11
61977;BMP280;45905;50.570;10.428;2022-07-03T00:32:38;98193.38;;;17.07
61977;BMP280;45905;50.570;10.428;2022-07-03T00:35:09;98188.81;;;17.02
61977;BMP280;45905;50.570;10.428;2022-07-03T00:37:41;98195.09;;;17.00
61977;BMP280;45905;50.570;10.428;2022-07-03T00:40:09;98192.47;;;16.94
61977;BMP280;45905;50.570;10.428;2022-07-03T00:42:38;98180.03;;;16.91
61977;BMP280;45905;50.570;10.428;2022-07-03T00:45:09;98181.22;;;16.88
61977;BMP280;45905;50.570;10.428;2022-07-03T00:47:37;98182.38;;;16.86
61977;BMP280;45905;50.570;10.428;2022-07-03T00:50:09;98180.34;;;16.81
61977;BMP280;45905;50.570;10.428;2022-07-03T00:52:37;98166.56;;;16.76
61977;BMP280;45905;50.570;10.428;2022-07-03T00:55:14;98166.91;;;16.73
61977;BMP280;45905;50.570;10.428;2022-07-03T00:57:46;98161.41;;;16.70
61977;BMP280;45905;50.570;10.428;2022-07-03T01:00:16;98167.69;;;16.67
61977;BMP280;45905;50.570;10.428;2022-07-03T01:08:12;98183.69;;;16.55
61977;BMP280;45905;50.570;10.428;2022-07-03T01:11:14;98190.34;;;16.50
61977;BMP280;45905;50.570;10.428;2022-07-03T01:17:34;98191.03;;;16.38
61977;BMP280;45905;50.570;10.428;2022-07-03T01:20:07;98187.44;;;16.32
61977;BMP280;45905;50.570;10.428;2022-07-03T01:22:42;98196.66;;;16.27
61977;BMP280;45905;50.570;10.428;2022-07-03T01:25:35;98192.88;;;16.23
61977;BMP280;45905;50.570;10.428;2022-07-03T01:28:20;98190.50;;;16.22
61977;BMP280;45905;50.570;10.428;2022-07-03T01:30:53;98196.78;;;16.19
61977;BMP280;45905;50.570;10.428;2022-07-03T01:33:32;98198.53;;;16.19
61977;BMP280;45905;50.570;10.428;2022-07-03T01:36:04;98197.75;;;16.18
61977;BMP280;45905;50.570;10.428;2022-07-03T01:38:36;98187.09;;;16.15
61977;BMP280;45905;50.570;10.428;2022-07-03T01:41:07;98184.09;;;16.11
61977;BMP280;45905;50.570;10.428;2022-07-03T01:44:00;98179.38;;;16.08
61977;BMP280;45905;50.570;10.428;2022-07-03T01:46:32;98183.41;;;16.03
61977;BMP280;45905;50.570;10.428;2022-07-03T01:49:00;98176.94;;;16.01
61977;BMP280;45905;50.570;10.428;2022-07-03T01:51:29;98178.69;;;16.00
61977;BMP280;45905;50.570;10.428;2022-07-03T01:53:58;98188.31;;;15.98
61977;BMP280;45905;50.570;10.428;2022-07-03T01:56:28;98182.53;;;15.96
61977;BMP280;45905;50.570;10.428;2022-07-03T01:58:59;98183.69;;;15.94
61977;BMP280;45905;50.570;10.428;2022-07-03T02:01:45;98180.09;;;15.88
61977;BMP280;45905;50.570;10.428;2022-07-03T02:04:30;98183.63;;;15.87
61977;BMP280;45905;50.570;10.428;2022-07-03T02:07:08;98174.75;;;15.84
61977;BMP280;45905;50.570;10.428;2022-07-03T02:09:57;98175.09;;;15.81
61977;BMP280;45905;50.570;10.428;2022-07-03T02:12:36;98184.72;;;15.79
61977;BMP280;45905;50.570;10.428;2022-07-03T02:15:07;98178.97;;;15.77
61977;BMP280;45905;50.570;10.428;2022-07-03T02:17:45;98175.41;;;15.71
61977;BMP280;45905;50.570;10.428;2022-07-03T02:20:16;98184.19;;;15.69
61977;BMP280;45905;50.570;10.428;2022-07-03T02:22:59;98187.13;;;15.66
61977;BMP280;45905;50.570;10.428;2022-07-03T02:25:40;98181.41;;;15.64
61977;BMP280;45905;50.570;10.428;2022-07-03T02:28:51;98180.16;;;15.60
61977;BMP280;45905;50.570;10.428;2022-07-03T02:31:26;98177.22;;;15.57
61977;BMP280;45905;50.570;10.428;2022-07-03T02:33:57;98178.34;;;15.54
61977;BMP280;45905;50.570;10.428;2022-07-03T02:36:28;98177.09;;;15.50
61977;BMP280;45905;50.570;10.428;2022-07-03T02:38:57;98177.47;;;15.47
61977;BMP280;45905;50.570;10.428;2022-07-03T02:41:46;98172.09;;;15.43
61977;BMP280;45905;50.570;10.428;2022-07-03T02:44:25;98171.69;;;15.39
61977;BMP280;45905;50.570;10.428;2022-07-03T02:50:10;98168.44;;;15.31
61977;BMP280;45905;50.570;10.428;2022-07-03T02:55:25;98167.53;;;15.24
61977;BMP280;45905;50.570;10.428;2022-07-03T02:58:31;98164.75;;;15.19
61977;BMP280;45905;50.570;10.428;2022-07-03T03:01:08;98176.25;;;15.15
61977;BMP280;45905;50.570;10.428;2022-07-03T03:03:45;98174.88;;;15.13
61977;BMP280;45905;50.570;10.428;2022-07-03T03:06:21;98165.34;;;15.07
61977;BMP280;45905;50.570;10.428;2022-07-03T03:08:52;98179.06;;;15.06
61977;BMP280;45905;50.570;10.428;2022-07-03T03:13:56;98179.28;;;15.05
61977;BMP280;45905;50.570;10.428;2022-07-03T03:16:27;98186.94;;;15.05
61977;BMP280;45905;50.570;10.428;2022-07-03T03:18:54;98179.63;;;15.02
61977;BMP280;45905;50.570;10.428;2022-07-03T03:21:26;98177.22;;;15.00
61977;BMP280;45905;50.570;10.428;2022-07-03T03:23:54;98179.94;;;14.99
61977;BMP280;45905;50.570;10.428;2022-07-03T03:26:24;98182.69;;;14.97
61977;BMP280;45905;50.570;10.428;2022-07-03T03:28:52;98181.44;;;14.93
61977;BMP280;45905;50.570;10.428;2022-07-03T03:31:20;98185.91;;;14.91
61977;BMP280;45905;50.570;10.428;2022-07-03T03:33:50;98184.31;;;14.90
61977;BMP280;45905;50.570;10.428;2022-07-03T03:36:20;98174.50;;;14.88
61977;BMP280;45905;50.570;10.428;2022-07-03T03:38:48;98175.63;;;14.85
61977;BMP280;45905;50.570;10.428;2022-07-03T03:41:16;98175.16;;;14.82
61977;BMP280;45905;50.570;10.428;2022-07-03T03:43:44;98183.63;;;14.82
61977;BMP280;45905;50.570;10.428;2022-07-03T03:46:12;98177.72;;;14.82
61977;BMP280;45905;50.570;10.428;2022-07-03T03:48:41;98182.19;;;14.80
61977;BMP280;45905;50.570;10.428;2022-07-03T03:51:09;98174.53;;;14.80
61977;BMP280;45905;50.570;10.428;2022-07-03T03:53:37;98175.34;;;14.80
61977;BMP280;45905;50.570;10.428;2022-07-03T03:56:09;98174.91;;;14.77
61977;BMP280;45905;50.570;10.428;2022-07-03T03:58:40;98165.03;;;14.74
61977;BMP280;45905;50.570;10.428;2022-07-03T04:01:10;98174.44;;;14.73
61977;BMP280;45905;50.570;10.428;2022-07-03T04:03:40;98171.72;;;14.75
61977;BMP280;45905;50.570;10.428;2022-07-03T04:06:08;98165.03;;;14.74
61977;BMP280;45905;50.570;10.428;2022-07-03T04:08:35;98169.53;;;14.72
61977;BMP280;45905;50.570;10.428;2022-07-03T04:11:03;98169.09;;;14.69
61977;BMP280;45905;50.570;10.428;2022-07-03T04:13:30;98181.69;;;14.70
61977;BMP280;45905;50.570;10.428;2022-07-03T04:15:58;98174.03;;;14.70
61977;BMP280;45905;50.570;10.428;2022-07-03T04:18:25;98168.47;;;14.67
61977;BMP280;45905;50.570;10.428;2022-07-03T04:20:58;98170.75;;;14.62
61977;BMP280;45905;50.570;10.428;2022-07-03T04:23:25;98175.66;;;14.63
61977;BMP280;45905;50.570;10.428;2022-07-03T04:25:53;98172.78;;;14.66
61977;BMP280;45905;50.570;10.428;2022-07-03T04:28:20;98171.66;;;14.69
61977;BMP280;45905;50.570;10.428;2022-07-03T04:30:48;98175.25;;;14.74
61977;BMP280;45905;50.570;10.428;2022-07-03T04:33:15;98178.88;;;14.79
61977;BMP280;45905;50.570;10.428;2022-07-03T04:35:43;98179.13;;;14.84
61977;BMP280;45905;50.570;10.428;2022-07-03T04:38:10;98188.38;;;14.85
61977;BMP280;45905;50.570;10.428;2022-07-03T04:40:37;98169.72;;;14.85
61977;BMP280;45905;50.570;10.428;2022-07-03T04:43:04;98178.16;;;14.85
61977;BMP280;45905;50.570;10.428;2022-07-03T04:45:31;98181.44;;;14.93
61977;BMP280;45905;50.570;10.428;2022-07-03T04:47:59;98181.19;;;15.03
61977;BMP280;45905;50.570;10.428;2022-07-03T04:50:27;98182.41;;;15.07
61977;BMP280;45905;50.570;10.428;2022-07-03T04:52:54;98177.22;;;15.14
61977;BMP280;45905;50.570;10.428;2022-07-03T04:55:21;98165.09;;;15.16
61977;BMP280;45905;50.570;10.428;2022-07-03T04:57:48;98168.44;;;15.17
61977;BMP280;45905;50.570;10.428;2022-07-03T05:00:15;98168.09;;;15.20
61977;BMP280;45905;50.570;10.428;2022-07-03T05:02:43;98165.59;;;15.26
61977;BMP280;45905;50.570;10.428;2022-07-03T05:05:10;98161.19;;;15.34
61977;BMP280;45905;50.570;10.428;2022-07-03T05:07:37;98171.47;;;15.41
61977;BMP280;45905;50.570;10.428;2022-07-03T05:10:05;98177.81;;;15.45
61977;BMP280;45905;50.570;10.428;2022-07-03T05:12:32;98190.13;;;15.55
61977;BMP280;45905;50.570;10.428;2022-07-03T05:15:07;98179.47;;;15.66
61977;BMP280;45905;50.570;10.428;2022-07-03T05:17:35;98183.91;;;15.78
61977;BMP280;45905;50.570;10.428;2022-07-03T05:20:04;98183.63;;;15.87
61977;BMP280;45905;50.570;10.428;2022-07-03T05:22:55;98179.66;;;15.99
61977;BMP280;45905;50.570;10.428;2022-07-03T05:25:24;98179.53;;;16.07
61977;BMP280;45905;50.570;10.428;2022-07-03T05:27:52;98190.44;;;16.15
61977;BMP280;45905;50.570;10.428;2022-07-03T05:30:24;98184.75;;;16.20
61977;BMP280;45905;50.570;10.428;2022-07-03T05:32:53;98186.78;;;16.24
61977;BMP280;45905;50.570;10.428;2022-07-03T05:35:20;98191.72;;;16.25
61977;BMP280;45905;50.570;10.428;2022-07-03T05:37:47;98193.72;;;16.30
61977;BMP280;45905;50.570;10.428;2022-07-03T05:40:15;98171.94;;;16.34
61977;BMP280;45905;50.570;10.428;2022-07-03T05:42:42;98174.53;;;16.40
61977;BMP280;45905;50.570;10.428;2022-07-03T05:45:10;98182.06;;;16.48
61977;BMP280;45905;50.570;10.428;2022-07-03T05:47:37;98181.75;;;16.57
61977;BMP280;45905;50.570;10.428;2022-07-03T05:50:06;98178.28;;;16.64
61977;BMP280;45905;50.570;10.428;2022-07-03T05:52:36;98169.69;;;16.72
61977;BMP280;45905;50.570;10.428;2022-07-03T05:55:04;98175.63;;;16.79
61977;BMP280;45905;50.570;10.428;2022-07-03T05:57:31;98179.22;;;16.84
61977;BMP280;45905;50.570;10.428;2022-07-03T06:00:00;98173.53;;;16.88
61977;BMP280;45905;50.570;10.428;2022-07-03T06:02:28;98175.38;;;16.94
61977;BMP280;45905;50.570;10.428;2022-07-03T06:04:55;98177.97;;;17.00
61977;BMP280;45905;50.570;10.428;2022-07-03T06:07:22;98180.38;;;17.08
61977;BMP280;45905;50.570;10.428;2022-07-03T06:09:49;98179.63;;;17.14
61977;BMP280;45905;50.570;10.428;2022-07-03T06:12:17;98175.69;;;17.18
61977;BMP280;45905;50.570;10.428;2022-07-03T06:14:44;98174.97;;;17.24
61977;BMP280;45905;50.570;10.428;2022-07-03T06:17:11;98173.59;;;17.28
61977;BMP280;45905;50.570;10.428;2022-07-03T06:19:38;98168.72;;;17.33
61977;BMP280;45905;50.570;10.428;2022-07-03T06:22:05;98173.06;;;17.38
61977;BMP280;45905;50.570;10.428;2022-07-03T06:24:32;98168.16;;;17.43
61977;BMP280;45905;50.570;10.428;2022-07-03T06:27:00;98157.16;;;17.49
61977;BMP280;45905;50.570;10.428;2022-07-03T06:29:27;98157.16;;;17.56
61977;BMP280;45905;50.570;10.428;2022-07-03T06:31:54;98160.72;;;17.61
61977;BMP280;45905;50.570;10.428;2022-07-03T06:34:22;98147.38;;;17.72
61977;BMP280;45905;50.570;10.428;2022-07-03T06:36:49;98146.03;;;17.82
61977;BMP280;45905;50.570;10.428;2022-07-03T06:39:16;98140.56;;;17.91
61977;BMP280;45905;50.570;10.428;2022-07-03T06:41:43;98138.97;;;17.96
61977;BMP280;45905;50.570;10.428;2022-07-03T06:44:10;98137.41;;;18.02
61977;BMP280;45905;50.570;10.428;2022-07-03T06:46:37;98146.88;;;18.08
61977;BMP280;45905;50.570;10.428;2022-07-03T06:49:05;98144.72;;;18.17
61977;BMP280;45905;50.570;10.428;2022-07-03T06:51:32;98135.88;;;18.26
61977;BMP280;45905;50.570;10.428;2022-07-03T06:54:01;98137.63;;;18.32
61977;BMP280;45905;50.570;10.428;2022-07-03T06:56:28;98139.00;;;18.41
61977;BMP280;45905;50.570;10.428;2022-07-03T06:58:57;98142.34;;;18.48
61977;BMP280;45905;50.570;10.428;2022-07-03T07:01:24;98138.41;;;18.58
61977;BMP280;45905;50.570;10.428;2022-07-03T07:03:52;98142.75;;;18.70
61977;BMP280;45905;50.570;10.428;2022-07-03T07:06:19;98151.84;;;18.79
61977;BMP280;45905;50.570;10.428;2022-07-03T07:08:47;98146.69;;;18.85
61977;BMP280;45905;50.570;10.428;2022-07-03T07:11:14;98133.25;;;18.96
61977;BMP280;45905;50.570;10.428;2022-07-03T07:13:41;98142.31;;;19.05
61977;BMP280;45905;50.570;10.428;2022-07-03T07:16:09;98143.06;;;19.18
61977;BMP280;45905;50.570;10.428;2022-07-03T07:18:36;98147.78;;;19.27
61977;BMP280;45905;50.570;10.428;2022-07-03T07:21:03;98143.00;;;19.37
61977;BMP280;45905;50.570;10.428;2022-07-03T07:23:30;98141.00;;;19.45
61977;BMP280;45905;50.570;10.428;2022-07-03T07:25:58;98137.41;;;19.59
61977;BMP280;45905;50.570;10.428;2022-07-03T07:28:25;98129.28;;;19.68
61977;BMP280;45905;50.570;10.428;2022-07-03T07:30:52;98136.53;;;19.77
61977;BMP280;45905;50.570;10.428;2022-07-03T07:33:24;98144.00;;;19.85
61977;BMP280;45905;50.570;10.428;2022-07-03T07:35:51;98139.59;;;19.92
61977;BMP280;45905;50.570;10.428;2022-07-03T07:38:19;98140.53;;;19.97
61977;BMP280;45905;50.570;10.428;2022-07-03T07:40:46;98134.34;;;20.05
61977;BMP280;45905;50.570;10.428;2022-07-03T07:43:13;98133.69;;;20.15
61977;BMP280;45905;50.570;10.428;2022-07-03T07:45:40;98138.22;;;20.20
61977;BMP280;45905;50.570;10.428;2022-07-03T07:48:08;98128.47;;;20.28
61977;BMP280;45905;50.570;10.428;2022-07-03T07:50:35;98134.97;;;20.37
61977;BMP280;45905;50.570;10.428;2022-07-03T07:53:02;98127.56;;;20.46
61977;BMP280;45905;50.570;10.428;2022-07-03T07:55:29;98127.88;;;20.56
61977;BMP280;45905;50.570;10.428;2022-07-03T07:57:57;98133.53;;;20.64
61977;BMP280;45905;50.570;10.428;2022-07-03T08:00:24;98135.84;;;20.72
61977;BMP280;45905;50.570;10.428;2022-07-03T08:02:51;98144.06;;;20.81
61977;BMP280;45905;50.570;10.428;2022-07-03T08:05:37;98141.59;;;20.92
61977;BMP280;45905;50.570;10.428;2022-07-03T08:08:17;98126.41;;;21.02
61977;BMP280;45905;50.570;10.428;2022-07-03T08:10:47;98125.38;;;21.09
61977;BMP280;45905;50.570;10.428;2022-07-03T08:13:17;98116.63;;;21.10
61977;BMP280;45905;50.570;10.428;2022-07-03T08:15:46;98121.53;;;21.18
61977;BMP280;45905;50.570;10.428;2022-07-03T08:18:14;98121.78;;;21.27
61977;BMP280;45905;50.570;10.428;2022-07-03T08:20:41;98126.31;;;21.32
61977;BMP280;45905;50.570;10.428;2022-07-03T08:23:08;98110.97;;;21.37
61977;BMP280;45905;50.570;10.428;2022-07-03T08:25:35;98113.72;;;21.41
61977;BMP280;45905;50.570;10.428;2022-07-03T08:28:03;98124.94;;;21.47
61977;BMP280;45905;50.570;10.428;2022-07-03T08:30:31;98112.88;;;21.59
61977;BMP280;45905;50.570;10.428;2022-07-03T08:32:59;98115.53;;;21.70
61977;BMP280;45905;50.570;10.428;2022-07-03T08:35:27;98112.97;;;21.81
61977;BMP280;45905;50.570;10.428;2022-07-03T08:37:55;98113.72;;;21.88
61977;BMP280;45905;50.570;10.428;2022-07-03T08:40:22;98111.81;;;21.95
61977;BMP280;45905;50.570;10.428;2022-07-03T08:42:54;98114.50;;;21.99
61977;BMP280;45905;50.570;10.428;2022-07-03T08:45:23;98111.63;;;22.07
61977;BMP280;45905;50.570;10.428;2022-07-03T08:47:54;98107.50;;;22.17
61977;BMP280;45905;50.570;10.428;2022-07-03T08:50:22;98097.41;;;22.27
61977;BMP280;45905;50.570;10.428;2022-07-03T08:52:49;98106.75;;;22.39
61977;BMP280;45905;50.570;10.428;2022-07-03T08:55:18;98104.72;;;22.41
61977;BMP280;45905;50.570;10.428;2022-07-03T08:57:47;98097.41;;;22.50
61977;BMP280;45905;50.570;10.428;2022-07-03T09:00:18;98104.63;;;22.59
61977;BMP280;45905;50.570;10.428;2022-07-03T09:02:49;98108.44;;;22.68
61977;BMP280;45905;50.570;10.428;2022-07-03T09:05:17;98095.75;;;22.77
61977;BMP280;45905;50.570;10.428;2022-07-03T09:07:46;98090.50;;;22.84
61977;BMP280;45905;50.570;10.428;2022-07-03T09:10:16;98095.97;;;22.87
61977;BMP280;45905;50.570;10.428;2022-07-03T09:12:46;98086.00;;;22.91
61977;BMP280;45905;50.570;10.428;2022-07-03T09:15:14;98088.44;;;22.97
61977;BMP280;45905;50.570;10.428;2022-07-03T09:18:04;98089.66;;;23.06
61977;BMP280;45905;50.570;10.428;2022-07-03T09:20:38;98086.41;;;23.10
61977;BMP280;45905;50.570;10.428;2022-07-03T09:23:18;98091.91;;;23.13
61977;BMP280;45905;50.570;10.428;2022-07-03T09:26:06;98084.13;;;23.25
61977;BMP280;45905;50.570;10.428;2022-07-03T09:31:21;98080.16;;;23.45
61977;BMP280;45905;50.570;10.428;2022-07-03T09:34:05;98080.59;;;23.53
61977;BMP280;45905;50.570;10.428;2022-07-03T09:36:50;98075.34;;;23.64
61977;BMP280;45905;50.570;10.428;2022-07-03T09:41:58;98072.81;;;23.80
61977;BMP280;45905;50.570;10.428;2022-07-03T09:44:41;98059.25;;;23.90
61977;BMP280;45905;50.570;10.428;2022-07-03T09:49:58;98059.81;;;24.08
61977;BMP280;45905;50.570;10.428;2022-07-03T09:52:38;98059.91;;;24.12
61977;BMP280;45905;50.570;10.428;2022-07-03T09:57:54;98053.00;;;24.18
61977;BMP280;45905;50.570;10.428;2022-07-03T10:00:32;98055.34;;;24.35
61977;BMP280;45905;50.570;10.428;2022-07-03T10:03:02;98055.50;;;24.45
61977;BMP280;45905;50.570;10.428;2022-07-03T10:05:41;98050.66;;;24.65
61977;BMP280;45905;50.570;10.428;2022-07-03T10:08:13;98040.28;;;24.65
61977;BMP280;45905;50.570;10.428;2022-07-03T10:10:46;98048.59;;;24.67
61977;BMP280;45905;50.570;10.428;2022-07-03T10:13:15;98044.63;;;24.80
61977;BMP280;45905;50.570;10.428;2022-07-03T10:15:43;98038.63;;;24.96
61977;BMP280;45905;50.570;10.428;2022-07-03T10:18:14;98042.44;;;25.09
61977;BMP280;45905;50.570;10.428;2022-07-03T10:20:49;98041.69;;;25.14
61977;BMP280;45905;50.570;10.428;2022-07-03T10:23:21;98033.47;;;25.22
61977;BMP280;45905;50.570;10.428;2022-07-03T10:25:50;98043.22;;;25.31
61977;BMP280;45905;50.570;10.428;2022-07-03T10:28:19;98038.63;;;25.38
61977;BMP280;45905;50.570;10.428;2022-07-03T10:30:48;98042.84;;;25.44
61977;BMP280;45905;50.570;10.428;2022-07-03T10:33:16;98042.41;;;25.51
61977;BMP280;45905;50.570;10.428;2022-07-03T10:35:53;98041.28;;;25.68
61977;BMP280;45905;50.570;10.428;2022-07-03T10:38:40;98033.09;;;25.81
61977;BMP280;45905;50.570;10.428;2022-07-03T10:41:45;98026.75;;;25.93
61977;BMP280;45905;50.570;10.428;2022-07-03T10:44:32;98026.03;;;26.02
61977;BMP280;45905;50.570;10.428;2022-07-03T10:47:47;98033.19;;;26.17
61977;BMP280;45905;50.570;10.428;2022-07-03T10:50:24;98025.44;;;26.26
61977;BMP280;45905;50.570;10.428;2022-07-03T10:52:51;98030.75;;;26.41
61977;BMP280;45905;50.570;10.428;2022-07-03T10:55:19;98022.03;;;26.52
61977;BMP280;45905;50.570;10.428;2022-07-03T10:58:08;98023.13;;;26.65
61977;BMP280;45905;50.570;10.428;2022-07-03T11:01:08;98014.31;;;26.71
61977;BMP280;45905;50.570;10.428;2022-07-03T11:04:00;98020.09;;;26.78
61977;BMP280;45905;50.570;10.428;2022-07-03T11:09:12;98012.13;;;27.04
61977;BMP280;45905;50.570;10.428;2022-07-03T11:11:46;98009.34;;;27.20
61977;BMP280;45905;50.570;10.428;2022-07-03T11:14:28;98000.78;;;27.34
61977;BMP280;45905;50.570;10.428;2022-07-03T11:17:19;98000.28;;;27.42
61977;BMP280;45905;50.570;10.428;2022-07-03T11:19:50;97997.47;;;27.53
61977;BMP280;45905;50.570;10.428;2022-07-03T11:22:51;97980.31;;;27.76
61977;BMP280;45905;50.570;10.428;2022-07-03T11:25:22;97981.38;;;27.90
61977;BMP280;45905;50.570;10.428;2022-07-03T11:27:52;97979.78;;;28.04
61977;BMP280;45905;50.570;10.428;2022-07-03T11:30:19;97984.47;;;28.21
61977;BMP280;45905;50.570;10.428;2022-07-03T11:32:52;97983.16;;;28.38
61977;BMP280;45905;50.570;10.428;2022-07-03T11:35:47;97978.75;;;28.44
61977;BMP280;45905;50.570;10.428;2022-07-03T11:38:24;97974.03;;;28.46
61977;BMP280;45905;50.570;10.428;2022-07-03T11:40:55;97978.94;;;28.57
61977;BMP280;45905;50.570;10.428;2022-07-03T11:43:23;97974.44;;;28.77
61977;BMP280;45905;50.570;10.428;2022-07-03T11:45:51;97973.38;;;28.92
61977;BMP280;45905;50.570;10.428;2022-07-03T11:48:23;97963.94;;;29.01
61977;BMP280;45905;50.570;10.428;2022-07-03T11:50:51;97962.38;;;29.00
61977;BMP280;45905;50.570;10.428;2022-07-03T11:53:32;97957.16;;;29.00
61977;BMP280;45905;50.570;10.428;2022-07-03T11:56:11;97948.78;;;29.08
61977;BMP280;45905;50.570;10.428;2022-07-03T11:58:52;97954.50;;;29.10
61977;BMP280;45905;50.570;10.428;2022-07-03T12:06:57;97936.31;;;29.43
61977;BMP280;45905;50.570;10.428;2022-07-03T12:09:35;97937.59;;;29.50
61977;BMP280;45905;50.570;10.428;2022-07-03T12:12:05;97935.91;;;29.64
61977;BMP280;45905;50.570;10.428;2022-07-03T12:14:47;97934.31;;;29.68
61977;BMP280;45905;50.570;10.428;2022-07-03T12:17:21;97928.78;;;29.74
61977;BMP280;45905;50.570;10.428;2022-07-03T12:19:56;97933.13;;;29.83
61977;BMP280;45905;50.570;10.428;2022-07-03T12:27:41;97924.66;;;30.24
61977;BMP280;45905;50.570;10.428;2022-07-03T12:30:19;97918.31;;;30.29
61977;BMP280;45905;50.570;10.428;2022-07-03T12:32:54;97925.53;;;30.42
61977;BMP280;45905;50.570;10.428;2022-07-03T12:35:25;97925.16;;;30.53
61977;BMP280;45905;50.570;10.428;2022-07-03T12:37:53;97915.06;;;30.65
61977;BMP280;45905;50.570;10.428;2022-07-03T12:40:20;97913.59;;;30.77
61977;BMP280;45905;50.570;10.428;2022-07-03T12:42:51;97905.34;;;30.88
61977;BMP280;45905;50.570;10.428;2022-07-03T12:45:24;97898.22;;;30.94
61977;BMP280;45905;50.570;10.428;2022-07-03T12:47:59;97895.34;;;31.13
61977;BMP280;45905;50.570;10.428;2022-07-03T12:53:25;97894.69;;;31.39
61977;BMP280;45905;50.570;10.428;2022-07-03T12:55:53;97891.34;;;31.52
61977;BMP280;45905;50.570;10.428;2022-07-03T12:58:23;97879.38;;;31.64
61977;BMP280;45905;50.570;10.428;2022-07-03T13:01:33;97880.75;;;31.75
61977;BMP280;45905;50.570;10.428;2022-07-03T13:04:01;97872.72;;;31.84
61977;BMP280;45905;50.570;10.428;2022-07-03T13:06:29;97877.66;;;32.04
61977;BMP280;45905;50.570;10.428;2022-07-03T13:09:02;97861.22;;;32.25
61977;BMP280;45905;50.570;10.428;2022-07-03T13:11:39;97869.22;;;32.46
61977;BMP280;45905;50.570;10.428;2022-07-03T13:14:15;97864.34;;;32.53
61977;BMP280;45905;50.570;10.428;2022-07-03T13:16:49;97864.16;;;32.63
61977;BMP280;45905;50.570;10.428;2022-07-03T13:19:19;97864.81;;;32.81
61977;BMP280;45905;50.570;10.428;2022-07-03T13:21:49;97862.53;;;33.01
61977;BMP280;45905;50.570;10.428;2022-07-03T13:24:18;97863.50;;;32.92
61977;BMP280;45905;50.570;10.428;2022-07-03T13:26:47;97855.94;;;32.91
61977;BMP280;45905;50.570;10.428;2022-07-03T13:29:20;97856.47;;;33.14
61977;BMP280;45905;50.570;10.428;2022-07-03T13:31:47;97855.59;;;33.40
61977;BMP280;45905;50.570;10.428;2022-07-03T13:34:17;97859.63;;;33.67
61977;BMP280;45905;50.570;10.428;2022-07-03T13:36:45;97856.19;;;33.58
61977;BMP280;45905;50.570;10.428;2022-07-03T13:39:12;97854.63;;;33.57
61977;BMP280;45905;50.570;10.428;2022-07-03T13:41:39;97836.63;;;33.73
61977;BMP280;45905;50.570;10.428;2022-07-03T13:44:06;97848.13;;;33.85
61977;BMP280;45905;50.570;10.428;2022-07-03T13:46:34;97858.84;;;33.67
61977;BMP280;45905;50.570;10.428;2022-07-03T13:49:01;97862.91;;;33.73
61977;BMP280;45905;50.570;10.428;2022-07-03T13:51:28;97859.25;;;33.82
61977;BMP280;45905;50.570;10.428;2022-07-03T13:53:56;97869.84;;;33.69
61977;BMP280;45905;50.570;10.428;2022-07-03T13:56:23;97860.25;;;33.43
61977;BMP280;45905;50.570;10.428;2022-07-03T13:58:50;97859.25;;;33.39
61977;BMP280;45905;50.570;10.428;2022-07-03T14:01:19;97856.94;;;33.37
61977;BMP280;45905;50.570;10.428;2022-07-03T14:03:49;97848.06;;;33.47
61977;BMP280;45905;50.570;10.428;2022-07-03T14:06:17;97845.69;;;33.58
61977;BMP280;45905;50.570;10.428;2022-07-03T14:08:44;97834.44;;;33.66
61977;BMP280;45905;50.570;10.428;2022-07-03T14:11:11;97838.63;;;33.67
61977;BMP280;45905;50.570;10.428;2022-07-03T14:13:38;97848.31;;;33.58
61977;BMP280;45905;50.570;10.428;2022-07-03T14:16:06;97840.53;;;33.54
61977;BMP280;45905;50.570;10.428;2022-07-03T14:18:33;97845.00;;;33.53
61977;BMP280;45905;50.570;10.428;2022-07-03T14:21:00;97847.44;;;33.28
61977;BMP280;45905;50.570;10.428;2022-07-03T14:23:27;97843.44;;;33.44
61977;BMP280;45905;50.570;10.428;2022-07-03T14:25:56;97817.09;;;33.57
61977;BMP280;45905;50.570;10.428;2022-07-03T14:28:24;97814.72;;;33.77
61977;BMP280;45905;50.570;10.428;2022-07-03T14:31:16;97817.56;;;33.89
61977;BMP280;45905;50.570;10.428;2022-07-03T14:34:03;97822.22;;;33.92
61977;BMP280;45905;50.570;10.428;2022-07-03T14:36:30;97824.00;;;33.83
61977;BMP280;45905;50.570;10.428;2022-07-03T14:39:12;97831.28;;;33.86
61977;BMP280;45905;50.570;10.428;2022-07-03T14:41:41;97826.56;;;33.88
61977;BMP280;45905;50.570;10.428;2022-07-03T14:44:09;97831.38;;;33.94
61977;BMP280;45905;50.570;10.428;2022-07-03T14:46:36;97831.69;;;34.01
61977;BMP280;45905;50.570;10.428;2022-07-03T14:49:04;97821.19;;;34.01
61977;BMP280;45905;50.570;10.428;2022-07-03T14:51:32;97829.38;;;33.99
61977;BMP280;45905;50.570;10.428;2022-07-03T14:54:00;97827.38;;;33.75
61977;BMP280;45905;50.570;10.428;2022-07-03T14:56:30;97825.50;;;33.67
61977;BMP280;45905;50.570;10.428;2022-07-03T14:59:06;97817.69;;;33.84
61977;BMP280;45905;50.570;10.428;2022-07-03T15:01:40;97817.56;;;33.89
61977;BMP280;45905;50.570;10.428;2022-07-03T15:04:20;97823.19;;;33.95
61977;BMP280;45905;50.570;10.428;2022-07-03T15:06:53;97810.16;;;33.91